Time;durP1;ratioP1;P1;durP2;ratioP2;P2;SDS_P1;SDS_P2;PMS_P1;PMS_P2;Temp;Humidity;BMP_temperature;BMP_pressure;BME280_temperature;BME280_humidity;BME280_pressure;Samples;Min_cycle;Max_cycle;Signal;HPM_P1;HPM_P2
2022/10/05 00:02:23;;;;;;;12.75;7.13;;;12.50;99.90;;;;;;5132962;27;20158;-55
2022/10/05 00:04:52;;;;;;;16.00;8.23;;;12.50;99.90;;;;;;5132676;27;20170;-55
2022/10/05 00:07:20;;;;;;;14.73;7.22;;;12.40;99.90;;;;;;5133039;27;20656;-55
2022/10/05 00:10:09;;;;;;;39.92;15.63;;;12.50;99.90;;;;;;5132987;27;20648;-55
2022/10/05 00:12:35;;;;;;;14.90;7.72;;;12.50;99.90;;;;;;5133314;27;20254;-55
2022/10/05 00:15:00;;;;;;;18.42;9.43;;;12.40;99.90;;;;;;5133063;27;20187;-55
2022/10/05 00:17:29;;;;;;;14.35;7.40;;;12.40;99.90;;;;;;5132841;27;20170;-55
2022/10/05 00:19:55;;;;;;;8.05;5.75;;;12.40;99.90;;;;;;5133052;27;20190;-55
2022/10/05 00:22:26;;;;;;;9.18;5.93;;;12.40;99.90;;;;;;5131466;27;20176;-55
2022/10/05 00:24:56;;;;;;;11.25;6.25;;;12.40;99.90;;;;;;5132741;27;20164;-55
2022/10/05 00:27:24;;;;;;;14.68;6.85;;;12.40;99.90;;;;;;5131533;27;20199;-55
2022/10/05 00:29:52;;;;;;;11.38;6.32;;;12.40;99.90;;;;;;5132677;27;20173;-55
2022/10/05 00:32:18;;;;;;;14.07;7.30;;;12.40;99.90;;;;;;5132681;27;20160;-55
2022/10/05 00:34:44;;;;;;;10.82;7.18;;;12.30;99.90;;;;;;5132720;27;20219;-55
2022/10/05 00:37:10;;;;;;;11.13;7.18;;;12.30;99.90;;;;;;5132768;27;20226;-54
2022/10/05 00:39:39;;;;;;;12.05;7.07;;;12.20;99.90;;;;;;5133137;27;20645;-55
2022/10/05 00:42:28;;;;;;;11.50;7.03;;;12.20;99.90;;;;;;5133084;27;20568;-55
2022/10/05 00:45:00;;;;;;;11.82;5.97;;;12.10;99.90;;;;;;5132619;27;20551;-55
2022/10/05 00:47:53;;;;;;;12.45;7.63;;;12.10;99.90;;;;;;5132506;27;20168;-55
2022/10/05 00:50:32;;;;;;;12.00;6.97;;;12.10;99.90;;;;;;5132601;27;20251;-55
2022/10/05 00:53:28;;;;;;;8.88;6.18;;;12.00;99.90;;;;;;5132625;27;20160;-55
2022/10/05 00:56:13;;;;;;;10.25;6.05;;;12.00;99.90;;;;;;5132315;27;20706;-55
2022/10/05 00:58:51;;;;;;;17.88;7.22;;;12.00;99.90;;;;;;5132503;27;20678;-55
2022/10/05 01:01:27;;;;;;;13.57;7.40;;;12.00;99.90;;;;;;5132408;27;20624;-55
2022/10/05 01:04:33;;;;;;;13.18;6.88;;;12.00;99.90;;;;;;5134916;27;20571;-55
2022/10/05 01:07:11;;;;;;;10.85;6.22;;;11.90;99.90;;;;;;5093243;28;20308;-55
2022/10/05 01:09:55;;;;;;;10.20;6.18;;;11.90;99.90;;;;;;5132730;27;20189;-55
2022/10/05 01:12:39;;;;;;;10.20;6.68;;;11.90;99.90;;;;;;5136558;27;20175;-55
2022/10/05 01:15:17;;;;;;;9.85;6.82;;;11.90;99.90;;;;;;5136506;27;20160;-55
2022/10/05 01:18:01;;;;;;;13.65;6.68;;;11.80;99.90;;;;;;5136260;27;20159;-55
2022/10/05 01:20:54;;;;;;;10.77;6.85;;;11.80;99.90;;;;;;5136182;27;20168;-55
2022/10/05 01:23:29;;;;;;;10.32;6.57;;;11.80;99.90;;;;;;5135946;27;20539;-55
2022/10/05 01:26:14;;;;;;;7.43;6.28;;;11.70;99.90;;;;;;5136354;27;20175;-55
2022/10/05 01:28:49;;;;;;;11.27;6.35;;;11.70;99.90;;;;;;5135980;27;20168;-55
2022/10/05 01:31:19;;;;;;;10.70;6.82;;;11.70;99.90;;;;;;5135930;27;20170;-55
2022/10/05 01:33:58;;;;;;;9.45;6.10;;;11.70;99.90;;;;;;5134648;27;20164;-55
2022/10/05 01:36:28;;;;;;;8.73;6.50;;;11.70;99.90;;;;;;5136042;27;20221;-55
2022/10/05 01:39:18;;;;;;;10.88;6.63;;;11.70;99.90;;;;;;5135725;27;20183;-55
2022/10/05 01:42:02;;;;;;;10.68;6.15;;;11.70;99.90;;;;;;5135694;27;20167;-55
2022/10/05 01:44:39;;;;;;;9.63;6.35;;;11.70;99.90;;;;;;5135637;27;20271;-54
2022/10/05 01:47:12;;;;;;;11.45;6.80;;;11.70;99.90;;;;;;5136020;27;20656;-55
2022/10/05 01:50:01;;;;;;;12.38;6.32;;;11.80;99.90;;;;;;5135566;27;20216;-55
2022/10/05 01:52:39;;;;;;;10.55;7.32;;;11.90;99.90;;;;;;5135528;27;20631;-55
2022/10/05 01:55:24;;;;;;;11.43;7.35;;;11.90;99.90;;;;;;5135654;27;20211;-55
2022/10/05 01:58:02;;;;;;;8.63;7.30;;;12.00;99.90;;;;;;5135357;27;20172;-54
2022/10/05 02:00:31;;;;;;;12.70;7.45;;;12.00;99.90;;;;;;5135361;27;20198;-55
2022/10/05 02:03:00;;;;;;;14.50;6.75;;;11.90;99.90;;;;;;5135270;27;20198;-55
2022/10/05 02:05:39;;;;;;;10.68;7.38;;;12.00;99.90;;;;;;5135234;27;20221;-55
2022/10/05 02:08:24;;;;;;;12.77;7.60;;;12.00;99.90;;;;;;5135531;27;20637;-55
2022/10/05 02:11:05;;;;;;;10.05;6.38;;;12.00;99.90;;;;;;5135195;27;20171;-55
2022/10/05 02:13:43;;;;;;;12.10;7.45;;;12.00;99.90;;;;;;5133907;27;20164;-55
2022/10/05 02:16:19;;;;;;;9.65;7.07;;;12.00;99.90;;;;;;5135058;27;20196;-55
2022/10/05 02:19:13;;;;;;;16.38;7.15;;;12.10;99.90;;;;;;5134988;27;20629;-55
2022/10/05 02:21:40;;;;;;;11.52;6.90;;;12.10;99.90;;;;;;5129060;27;20193;-55
2022/10/05 02:24:14;;;;;;;16.40;8.05;;;12.10;99.90;;;;;;5134968;27;20203;-55
2022/10/05 02:26:40;;;;;;;9.90;7.25;;;12.10;99.90;;;;;;5134869;27;20184;-55
2022/10/05 02:29:10;;;;;;;8.90;7.03;;;12.10;99.90;;;;;;5135318;27;20164;-55
2022/10/05 02:31:56;;;;;;;10.82;7.40;;;12.10;99.90;;;;;;5135390;27;20534;-55
2022/10/05 02:34:23;;;;;;;9.55;6.18;;;12.20;99.90;;;;;;5134920;27;20160;-55
2022/10/05 02:37:03;;;;;;;12.65;7.70;;;12.10;99.90;;;;;;5134672;27;20161;-55
2022/10/05 02:39:43;;;;;;;10.60;6.88;;;12.10;99.90;;;;;;5134681;27;20160;-55
2022/10/05 02:42:25;;;;;;;9.88;6.90;;;12.10;99.90;;;;;;5134866;27;20172;-55
2022/10/05 02:45:25;;;;;;;11.02;7.72;;;12.10;99.90;;;;;;5134798;27;20568;-55
2022/10/05 02:48:24;;;;;;;10.60;6.60;;;12.10;99.90;;;;;;5134448;27;20179;-55
2022/10/05 02:51:03;;;;;;;11.55;7.57;;;12.10;99.90;;;;;;5134436;27;20178;-55
2022/10/05 02:53:46;;;;;;;12.93;7.82;;;12.10;99.90;;;;;;5134381;27;20177;-55
2022/10/05 02:56:43;;;;;;;9.77;7.10;;;12.10;99.90;;;;;;5134107;27;20246;-55
2022/10/05 02:59:28;;;;;;;12.55;7.57;;;12.10;99.90;;;;;;5132897;27;20168;-55
2022/10/05 03:02:06;;;;;;;10.18;7.60;;;12.10;99.90;;;;;;5134103;27;20179;-55
2022/10/05 03:04:37;;;;;;;10.73;7.57;;;12.10;99.90;;;;;;5133079;27;20283;-55
2022/10/05 03:07:40;;;;;;;14.98;7.85;;;12.10;99.90;;;;;;5134372;27;20164;-55
2022/10/05 03:10:11;;;;;;;11.80;8.25;;;12.10;99.90;;;;;;5134420;27;20167;-55
2022/10/05 03:13:08;;;;;;;11.50;7.10;;;12.20;99.90;;;;;;5132645;27;20167;-55
2022/10/05 03:15:58;;;;;;;13.38;7.85;;;12.20;99.90;;;;;;5134487;27;20203;-55
2022/10/05 03:18:44;;;;;;;10.48;7.47;;;12.20;99.90;;;;;;5133808;27;20601;-54
2022/10/05 03:21:42;;;;;;;11.25;7.82;;;12.30;99.90;;;;;;5132551;27;20190;-55
2022/10/05 03:24:19;;;;;;;12.13;7.50;;;12.20;99.90;;;;;;5133693;27;20609;-54
2022/10/05 03:27:02;;;;;;;15.93;8.20;;;12.20;99.90;;;;;;5133703;27;20168;-55
2022/10/05 03:29:37;;;;;;;11.98;7.70;;;12.20;99.90;;;;;;5133590;27;20168;-54
2022/10/05 03:32:17;;;;;;;10.80;6.97;;;12.20;99.90;;;;;;5133881;27;20163;-55
2022/10/05 03:34:52;;;;;;;18.75;7.82;;;12.20;99.90;;;;;;5133764;27;20167;-54
2022/10/05 03:37:27;;;;;;;13.95;7.80;;;12.20;99.90;;;;;;5133763;27;20172;-55
2022/10/05 03:40:23;;;;;;;10.65;7.70;;;12.20;99.90;;;;;;5133713;27;20518;-55
2022/10/05 03:43:20;;;;;;;9.82;7.47;;;12.20;99.90;;;;;;5133343;27;20183;-55
2022/10/05 03:46:07;;;;;;;10.70;7.82;;;12.20;99.90;;;;;;5133383;27;20168;-55
2022/10/05 03:48:46;;;;;;;11.23;7.93;;;12.20;99.90;;;;;;5133648;27;20167;-55
2022/10/05 03:51:23;;;;;;;12.95;7.28;;;12.20;99.90;;;;;;5133354;27;20212;-55
2022/10/05 03:53:58;;;;;;;12.18;7.35;;;12.20;99.90;;;;;;5133464;27;20167;-55
2022/10/05 03:56:42;;;;;;;8.45;7.03;;;12.20;99.90;;;;;;5132974;27;20211;-55
2022/10/05 03:59:13;;;;;;;9.05;6.80;;;12.10;99.90;;;;;;5133060;27;20160;-55
2022/10/05 04:01:53;;;;;;;7.63;6.40;;;12.20;99.90;;;;;;5133173;27;20164;-54
2022/10/05 04:04:25;;;;;;;8.60;6.78;;;12.20;99.90;;;;;;5132968;27;20235;-54
2022/10/05 04:06:54;;;;;;;11.63;7.68;;;12.20;99.90;;;;;;5131746;27;20213;-55
2022/10/05 04:09:32;;;;;;;8.98;6.55;;;12.20;99.90;;;;;;5133041;27;20166;-54
2022/10/05 04:12:20;;;;;;;10.15;6.47;;;12.20;99.90;;;;;;5133159;27;20176;-54
2022/10/05 04:15:07;;;;;;;8.13;6.50;;;12.20;99.90;;;;;;5132881;27;20247;-54
2022/10/05 04:17:39;;;;;;;10.30;6.43;;;12.20;99.90;;;;;;5133150;27;20208;-55
2022/10/05 04:20:15;;;;;;;9.65;6.22;;;12.20;99.90;;;;;;5131874;27;20171;-55
2022/10/05 04:23:04;;;;;;;7.97;6.25;;;12.20;99.90;;;;;;5133003;27;20202;-54
2022/10/05 04:25:49;;;;;;;9.57;6.50;;;12.20;99.90;;;;;;5112766;27;20183;-55
2022/10/05 04:28:30;;;;;;;8.38;6.18;;;12.20;99.90;;;;;;5132806;27;20175;-54
2022/10/05 04:30:55;;;;;;;8.10;5.97;;;12.30;99.90;;;;;;5132665;27;20174;-54
2022/10/05 04:33:21;;;;;;;7.60;5.68;;;12.30;99.90;;;;;;5132743;27;20251;-55
2022/10/05 04:36:05;;;;;;;7.18;5.70;;;12.30;99.90;;;;;;5132607;27;20168;-55
2022/10/05 04:38:45;;;;;;;8.70;5.57;;;12.30;99.90;;;;;;5136205;27;20182;-55
2022/10/05 04:41:36;;;;;;;8.43;6.00;;;12.30;99.90;;;;;;5136833;27;20683;-55
2022/10/05 04:44:40;;;;;;;8.25;5.72;;;12.40;99.90;;;;;;5137437;27;20219;-55
2022/10/05 04:47:27;;;;;;;7.05;5.60;;;12.40;99.90;;;;;;5134960;27;20179;-55
2022/10/05 04:50:12;;;;;;;6.55;5.75;;;12.40;99.90;;;;;;5136796;27;20221;-54
2022/10/05 04:52:46;;;;;;;10.95;6.32;;;12.40;99.90;;;;;;5136762;27;20221;-54
2022/10/05 04:55:17;;;;;;;9.52;5.50;;;12.40;99.90;;;;;;5136577;27;20238;-54
2022/10/05 04:58:03;;;;;;;5.93;5.28;;;12.40;99.90;;;;;;5136585;27;20564;-54
2022/10/05 05:01:06;;;;;;;8.52;5.35;;;12.40;99.90;;;;;;5136811;27;20175;-54
2022/10/05 05:03:46;;;;;;;6.93;5.30;;;12.40;99.90;;;;;;5136746;27;20203;-55
2022/10/05 05:06:39;;;;;;;8.85;6.60;;;12.40;99.90;;;;;;5136680;27;20206;-54
2022/10/05 05:09:16;;;;;;;8.13;5.82;;;12.40;99.90;;;;;;5136702;27;20528;-54
2022/10/05 05:12:31;;;;;;;8.70;6.28;;;12.40;99.90;;;;;;5136372;27;20187;-54
2022/10/05 05:15:09;;;;;;;7.03;4.80;;;12.40;99.90;;;;;;5092859;28;20618;-55
2022/10/05 05:17:55;;;;;;;8.23;5.82;;;12.40;99.90;;;;;;5131371;27;20176;-55
2022/10/05 05:20:26;;;;;;;12.05;5.38;;;12.40;99.90;;;;;;5136121;27;20262;-54
2022/10/05 05:22:55;;;;;;;11.32;6.13;;;12.40;99.90;;;;;;5136211;27;20276;-54
2022/10/05 05:26:03;;;;;;;14.88;6.30;;;12.40;99.90;;;;;;5135954;27;20531;-54
2022/10/05 05:28:50;;;;;;;10.77;5.57;;;12.40;99.90;;;;;;5126636;27;20179;-55
2022/10/05 05:32:07;;;;;;;6.90;5.05;;;12.50;99.90;;;;;;5135941;27;20247;-55
2022/10/05 05:34:59;;;;;;;8.57;5.57;;;12.50;99.90;;;;;;5093044;28;20181;-54
2022/10/05 05:37:33;;;;;;;12.38;6.28;;;12.50;99.90;;;;;;5134850;27;20580;-54
2022/10/05 05:40:26;;;;;;;11.18;6.53;;;12.40;99.90;;;;;;5135756;27;20195;-55
2022/10/05 05:43:24;;;;;;;9.50;5.45;;;12.40;99.90;;;;;;5135979;27;20269;-54
2022/10/05 05:46:13;;;;;;;15.82;7.30;;;12.50;99.90;;;;;;5135613;27;20232;-55
2022/10/05 05:48:46;;;;;;;9.88;6.13;;;12.50;99.90;;;;;;5135483;27;20164;-54
2022/10/05 05:51:27;;;;;;;5.80;5.20;;;12.50;99.90;;;;;;5134284;27;20172;-55
2022/10/05 05:54:14;;;;;;;11.05;6.93;;;12.50;99.90;;;;;;5135513;27;20164;-54
2022/10/05 05:56:48;;;;;;;7.82;5.00;;;12.60;99.90;;;;;;5135543;27;20636;-54
2022/10/05 05:59:24;;;;;;;11.45;6.50;;;12.60;99.90;;;;;;5135490;27;20168;-55
2022/10/05 06:01:58;;;;;;;6.90;4.90;;;12.60;99.90;;;;;;5135407;27;20164;-55
2022/10/05 06:04:33;;;;;;;6.45;4.55;;;12.60;99.90;;;;;;5135170;27;20225;-55
2022/10/05 06:07:00;;;;;;;8.70;5.80;;;12.70;99.90;;;;;;5135128;27;20216;-55
2022/10/05 06:09:44;;;;;;;8.00;5.43;;;12.70;99.90;;;;;;5135443;27;20195;-55
2022/10/05 06:12:18;;;;;;;8.60;5.20;;;12.70;99.90;;;;;;5135144;27;20152;-55
2022/10/05 06:14:51;;;;;;;9.65;5.63;;;12.80;99.90;;;;;;5135151;27;20638;-55
2022/10/05 06:17:31;;;;;;;10.50;6.18;;;12.80;99.90;;;;;;5135043;27;20193;-54
2022/10/05 06:19:59;;;;;;;10.18;5.28;;;12.90;99.90;;;;;;5135041;27;20210;-55
2022/10/05 06:22:39;;;;;;;26.58;8.38;;;12.90;99.90;;;;;;5134938;27;20175;-54
2022/10/05 06:25:28;;;;;;;9.85;5.88;;;12.90;99.90;;;;;;5134951;27;20213;-55
2022/10/05 06:28:19;;;;;;;5.93;4.68;;;13.00;99.90;;;;;;5134853;27;20572;-55
2022/10/05 06:31:04;;;;;;;12.27;5.97;;;13.60;99.90;;;;;;5132980;27;20705;-55
2022/10/05 06:33:41;;;;;;;15.32;5.55;;;13.00;99.90;;;;;;5134965;27;20644;-54
2022/10/05 06:36:25;;;;;;;12.57;5.18;;;13.10;99.90;;;;;;5134299;27;20221;-55
2022/10/05 06:39:10;;;;;;;11.38;5.57;;;13.10;99.90;;;;;;5134991;27;20577;-54
2022/10/05 06:42:00;;;;;;;7.15;4.47;;;13.10;99.90;;;;;;5113065;27;20184;-54
2022/10/05 06:44:38;;;;;;;13.45;5.97;;;13.20;99.90;;;;;;5134585;27;20211;-55
2022/10/05 06:47:09;;;;;;;10.18;4.70;;;13.20;99.90;;;;;;5134975;27;20183;-55
2022/10/05 06:50:00;;;;;;;12.95;5.38;;;13.20;99.90;;;;;;5134616;27;20164;-55
2022/10/05 06:52:46;;;;;;;7.65;4.85;;;13.30;99.90;;;;;;5134487;27;20182;-54
2022/10/05 06:55:47;;;;;;;15.45;5.47;;;13.30;99.90;;;;;;5134249;27;20212;-55
2022/10/05 06:58:19;;;;;;;5.13;4.20;;;13.40;99.90;;;;;;5134549;27;20168;-54
2022/10/05 07:01:14;;;;;;;5.22;4.50;;;13.40;99.90;;;;;;5133480;27;20303;-54
2022/10/05 07:03:58;;;;;;;11.77;5.18;;;13.40;99.90;;;;;;5134239;27;20666;-54
2022/10/05 07:06:48;;;;;;;6.65;4.88;;;13.50;99.90;;;;;;5133677;27;20156;-54
2022/10/05 07:09:30;;;;;;;7.38;4.47;;;13.60;99.90;;;;;;5134012;27;20164;-54
2022/10/05 07:12:06;;;;;;;5.53;4.00;;;13.60;99.90;;;;;;5134046;27;20164;-54
2022/10/05 07:15:00;;;;;;;6.65;4.38;;;13.70;99.90;;;;;;5134047;27;20183;-54
2022/10/05 07:17:34;;;;;;;6.82;4.03;;;13.70;99.90;;;;;;5132568;27;20171;-55
2022/10/05 07:20:06;;;;;;;5.22;4.40;;;13.70;99.90;;;;;;5134047;27;20164;-54
2022/10/05 07:23:06;;;;;;;4.07;3.67;;;13.80;99.90;;;;;;5134078;27;20175;-54
2022/10/05 07:25:45;;;;;;;8.23;3.97;;;13.80;99.90;;;;;;5130909;27;20180;-54
2022/10/05 07:28:45;;;;;;;5.13;3.53;;;13.90;99.90;;;;;;5133478;27;20659;-54
2022/10/05 07:31:35;;;;;;;5.38;4.25;;;13.90;99.90;;;;;;5119597;27;20180;-54
2022/10/05 07:34:40;;;;;;;5.20;3.72;;;13.90;99.90;;;;;;5133902;27;20168;-54
2022/10/05 07:40:38;;;;;;;6.30;3.67;;;14.00;99.90;;;;;;5133270;27;20174;-54
2022/10/05 07:43:24;;;;;;;4.35;3.75;;;14.00;99.90;;;;;;5133356;27;20199;-54
2022/10/05 07:45:52;;;;;;;5.78;3.50;;;14.00;99.90;;;;;;5133362;27;20617;-55
2022/10/05 07:48:53;;;;;;;6.95;3.53;;;14.10;99.90;;;;;;5133267;27;20648;-54
2022/10/05 07:51:40;;;;;;;3.88;3.42;;;14.10;99.90;;;;;;5133261;27;20178;-54
2022/10/05 07:54:20;;;;;;;6.13;3.60;;;14.10;99.90;;;;;;5133493;27;20167;-55
2022/10/05 07:56:54;;;;;;;6.40;4.10;;;14.10;99.90;;;;;;5132885;27;20179;-55
2022/10/05 07:59:32;;;;;;;5.53;3.67;;;14.20;99.90;;;;;;5131662;27;20697;-54
2022/10/05 08:02:43;;;;;;;5.13;3.65;;;14.20;99.90;;;;;;5132780;27;20178;-55
2022/10/05 08:05:12;;;;;;;3.78;3.28;;;14.20;99.90;;;;;;5088966;27;20194;-55
2022/10/05 08:07:38;;;;;;;3.40;3.10;;;14.30;99.90;;;;;;5132937;27;20648;-55
2022/10/05 08:10:24;;;;;;;9.60;3.78;;;14.40;99.90;;;;;;5133248;27;20178;-54
2022/10/05 08:13:04;;;;;;;4.70;3.38;;;14.40;99.90;;;;;;5132464;27;20164;-55
2022/10/05 08:15:41;;;;;;;9.77;3.30;;;14.50;99.90;;;;;;5133282;27;20187;-55
2022/10/05 08:18:37;;;;;;;3.28;2.92;;;14.60;99.90;;;;;;5132607;27;20216;-55
2022/10/05 08:21:05;;;;;;;6.68;3.47;;;14.70;99.90;;;;;;5132762;27;20164;-55
2022/10/05 08:23:41;;;;;;;4.15;3.35;;;14.80;99.90;;;;;;5133129;27;20241;-55
2022/10/05 08:26:25;;;;;;;4.47;3.17;;;15.00;99.90;;;;;;5133239;27;20171;-55
2022/10/05 08:29:17;;;;;;;4.97;3.13;;;15.00;99.90;;;;;;5132421;27;20178;-54
2022/10/05 08:31:47;;;;;;;3.22;2.92;;;16.60;99.90;;;;;;5130928;28;20520;-54
2022/10/05 08:34:20;;;;;;;7.50;3.33;;;15.30;99.90;;;;;;5132456;27;20613;-54
2022/10/05 08:37:12;;;;;;;4.25;2.90;;;15.40;99.90;;;;;;5132535;27;20236;-54
2022/10/05 08:39:54;;;;;;;3.58;2.80;;;15.40;99.90;;;;;;5132476;27;20562;-55
2022/10/05 08:42:40;;;;;;;3.55;2.90;;;15.50;99.90;;;;;;5132586;27;20156;-55
2022/10/05 08:45:43;;;;;;;5.30;4.45;;;15.50;99.90;;;;;;5132481;27;20172;-55
2022/10/05 08:48:27;;;;;;;3.45;3.03;;;15.50;99.90;;;;;;5132462;27;20164;-55
2022/10/05 08:51:13;;;;;;;10.93;3.03;;;15.60;99.90;;;;;;5132124;27;20168;-55
2022/10/05 08:54:12;;;;;;;9.68;2.92;;;15.70;99.90;;;;;;5132237;27;20186;-56
2022/10/05 08:56:43;;;;;;;5.25;2.60;;;15.80;99.90;;;;;;5132195;27;20180;-54
2022/10/05 08:59:45;;;;;;;5.63;3.00;;;15.80;99.90;;;;;;5131141;27;20160;-54
2022/10/05 09:02:25;;;;;;;4.38;2.60;;;15.90;99.90;;;;;;5132538;27;20215;-55
2022/10/05 09:05:13;;;;;;;5.03;3.60;;;15.90;99.90;;;;;;5132343;27;20554;-57
2022/10/05 09:08:25;;;;;;;5.55;3.17;;;16.00;99.90;;;;;;5132060;28;20156;-55
2022/10/05 09:11:02;;;;;;;4.05;3.13;;;16.00;99.90;;;;;;5132358;27;20172;-55
2022/10/05 09:13:56;;;;;;;3.63;3.08;;;16.00;99.90;;;;;;5132627;27;20172;-55
2022/10/05 09:16:40;;;;;;;5.43;2.80;;;16.00;99.90;;;;;;5132289;27;20168;-55
2022/10/05 09:19:35;;;;;;;4.80;3.22;;;16.10;99.90;;;;;;5130935;28;20580;-55
2022/10/05 09:22:14;;;;;;;3.72;2.50;;;16.10;99.90;;;;;;5132532;27;20664;-54
2022/10/05 09:25:07;;;;;;;6.72;3.67;;;16.10;99.90;;;;;;5135544;27;20228;-55
2022/10/05 09:27:37;;;;;;;6.78;3.72;;;16.20;99.90;;;;;;5136435;27;20224;-55
2022/10/05 09:30:12;;;;;;;6.50;3.22;;;16.30;99.90;;;;;;5136428;27;20164;-55
2022/10/05 09:33:15;;;;;;;7.97;4.90;;;16.30;99.90;;;;;;5135970;27;20276;-54
2022/10/05 09:35:49;;;;;;;7.45;4.63;;;16.40;99.90;;;;;;5135931;27;20397;-55
2022/10/05 09:38:46;;;;;;;13.57;5.90;;;16.40;99.90;;;;;;5135450;27;20174;-54
2022/10/05 09:41:30;;;;;;;16.73;8.02;;;16.60;99.90;;;;;;5135742;27;20251;-54
2022/10/05 09:44:19;;;;;;;6.68;3.28;;;16.80;99.90;;;;;;5135639;27;20206;-54
2022/10/05 09:46:57;;;;;;;11.43;4.75;;;16.70;99.90;;;;;;5129851;27;20174;-55
2022/10/05 09:49:37;;;;;;;5.57;3.75;;;16.80;99.90;;;;;;5135779;27;20175;-55
2022/10/05 09:52:27;;;;;;;6.30;3.15;;;16.90;99.90;;;;;;5136028;27;20191;-54
2022/10/05 09:55:07;;;;;;;8.05;3.20;;;17.10;99.90;;;;;;5135328;27;20211;-54
2022/10/05 09:58:13;;;;;;;6.18;2.20;;;17.30;99.90;;;;;;5136056;27;20228;-54
2022/10/05 10:01:09;;;;;;;6.75;3.22;;;17.60;99.90;;;;;;5114009;27;20671;-55
2022/10/05 10:03:57;;;;;;;4.63;2.88;;;17.50;99.90;;;;;;5135226;27;20199;-54
2022/10/05 10:06:40;;;;;;;6.47;3.53;;;17.50;99.90;;;;;;5135286;27;20633;-54
2022/10/05 10:09:25;;;;;;;4.18;2.03;;;17.60;99.90;;;;;;5135189;27;20164;-55
2022/10/05 10:12:29;;;;;;;10.43;6.03;;;17.50;99.90;;;;;;5135352;27;20250;-55
2022/10/05 10:15:13;;;;;;;2.75;2.45;;;17.60;99.90;;;;;;5135112;27;20171;-55
2022/10/05 10:18:06;;;;;;;4.78;2.72;;;17.70;99.90;;;;;;5135112;27;20168;-54
2022/10/05 10:20:58;;;;;;;9.23;2.72;;;17.90;99.90;;;;;;5135287;27;20167;-55
2022/10/05 10:23:45;;;;;;;5.10;3.28;;;17.90;99.90;;;;;;5134881;27;20591;-55
2022/10/05 10:26:41;;;;;;;9.57;3.38;;;17.90;99.90;;;;;;5133040;27;20163;-55
2022/10/05 10:29:24;;;;;;;4.30;2.28;;;18.40;99.90;;;;;;5134759;27;20708;-55
2022/10/05 10:32:03;;;;;;;3.17;1.70;;;18.70;99.90;;;;;;5134754;27;20243;-55
2022/10/05 10:34:50;;;;;;;7.63;3.92;;;18.80;99.90;;;;;;5134157;27;20156;-55
2022/10/05 10:37:21;;;;;;;6.63;3.33;;;19.10;99.90;;;;;;5134695;27;20164;-55
2022/10/05 10:40:11;;;;;;;4.85;2.35;;;19.20;99.90;;;;;;5133360;27;20712;-55
2022/10/05 10:42:55;;;;;;;4.57;2.22;;;19.10;99.90;;;;;;5133146;27;20175;-55
2022/10/05 10:45:47;;;;;;;7.05;2.97;;;19.00;99.90;;;;;;5134386;27;20164;-55
2022/10/05 10:48:27;;;;;;;4.70;2.20;;;19.00;99.90;;;;;;5135879;27;20529;-54
2022/10/05 10:51:28;;;;;;;4.80;2.38;;;19.20;99.90;;;;;;5134595;27;20562;-54
2022/10/05 10:54:24;;;;;;;1.90;1.70;;;19.10;99.90;;;;;;5134349;27;20189;-54
2022/10/05 10:56:56;;;;;;;4.97;2.55;;;18.90;99.90;;;;;;5134469;27;20176;-54
2022/10/05 10:59:43;;;;;;;4.53;2.50;;;19.00;99.90;;;;;;5134349;27;20667;-54
2022/10/05 11:02:36;;;;;;;5.20;3.08;;;19.20;99.90;;;;;;5134283;27;20155;-54
2022/10/05 11:05:26;;;;;;;3.28;1.90;;;19.40;99.90;;;;;;5134811;27;20191;-54
2022/10/05 11:07:57;;;;;;;2.92;1.80;;;19.50;99.90;;;;;;5134162;27;20163;-54
2022/10/05 11:10:28;;;;;;;3.67;1.92;;;19.50;99.90;;;;;;5132802;27;20174;-54
2022/10/05 11:13:29;;;;;;;3.90;2.20;;;19.50;99.90;;;;;;5133979;27;20164;-54
2022/10/05 11:16:06;;;;;;;7.07;2.33;;;19.70;99.90;;;;;;5133978;27;20164;-54
2022/10/05 11:18:45;;;;;;;5.60;2.50;;;19.70;99.90;;;;;;5134270;27;20247;-54
2022/10/05 11:21:54;;;;;;;8.80;2.35;;;19.90;99.90;;;;;;5133839;27;20167;-54
2022/10/05 11:24:28;;;;;;;6.75;3.20;;;20.10;99.90;;;;;;5131742;27;20622;-55
2022/10/05 11:27:23;;;;;;;3.20;2.13;;;20.00;99.90;;;;;;5133666;27;20188;-54
2022/10/05 11:30:10;;;;;;;3.45;2.90;;;20.20;99.90;;;;;;5133596;27;20175;-54
2022/10/05 11:33:15;;;;;;;3.03;1.90;;;20.20;99.90;;;;;;5133444;27;20156;-53
2022/10/05 11:36:07;;;;;;;3.33;1.65;;;20.20;99.90;;;;;;5132945;27;20182;-54
2022/10/05 11:38:39;;;;;;;3.00;1.90;;;20.30;99.90;;;;;;5133419;27;20629;-53
2022/10/05 11:41:26;;;;;;;3.42;2.08;;;20.30;99.90;;;;;;5133492;27;20175;-53
2022/10/05 11:44:14;;;;;;;4.15;2.20;;;20.50;99.90;;;;;;5133620;27;20210;-54
2022/10/05 11:46:54;;;;;;;2.97;2.30;;;20.60;99.90;;;;;;5131723;27;20167;-54
2022/10/05 11:49:28;;;;;;;2.60;1.70;;;20.70;99.90;;;;;;5133383;27;20160;-54
2022/10/05 11:52:05;;;;;;;3.90;1.42;;;20.80;99.90;;;;;;5133272;27;20157;-54
2022/10/05 11:55:10;;;;;;;4.50;2.03;;;20.80;99.90;;;;;;5133118;27;20195;-54
2022/10/05 11:57:48;;;;;;;3.20;1.90;;;20.70;99.90;;;;;;5133096;27;20171;-54
2022/10/05 12:00:20;;;;;;;3.55;1.58;;;20.60;99.90;;;;;;5133136;27;20288;-54
2022/10/05 12:03:23;;;;;;;5.30;1.70;;;20.70;99.90;;;;;;5132495;27;20202;-54
2022/10/05 12:06:07;;;;;;;2.58;2.08;;;20.90;99.90;;;;;;5132759;27;20164;-54
2022/10/05 12:09:05;;;;;;;2.72;1.60;;;20.90;99.90;;;;;;5132922;27;20825;-54
2022/10/05 12:11:41;;;;;;;2.78;1.50;;;20.90;99.90;;;;;;5132606;27;20159;-54
2022/10/05 12:14:32;;;;;;;2.05;1.70;;;21.00;99.90;;;;;;5132945;27;20164;-54
2022/10/05 12:17:04;;;;;;;1.60;1.50;;;21.10;99.90;;;;;;5131868;27;20631;-54
2022/10/05 12:19:54;;;;;;;2.28;1.83;;;21.20;99.90;;;;;;5133252;27;20164;-54
2022/10/05 12:22:21;;;;;;;2.33;1.63;;;21.20;99.90;;;;;;5132617;27;20160;-54
2022/10/05 12:25:00;;;;;;;1.83;1.50;;;21.40;99.90;;;;;;5132371;27;20664;-54
2022/10/05 12:27:30;;;;;;;3.15;1.70;;;21.10;99.90;;;;;;5132621;27;20168;-54
2022/10/05 12:30:11;;;;;;;4.45;1.83;;;21.20;99.90;;;;;;5130938;28;20182;-54
2022/10/05 12:32:39;;;;;;;2.38;1.50;;;21.30;99.90;;;;;;5132603;27;20164;-54
2022/10/05 12:35:34;;;;;;;2.08;1.63;;;21.50;99.90;;;;;;5132705;27;20160;-54
2022/10/05 12:38:15;;;;;;;1.67;1.40;;;21.50;99.90;;;;;;5133028;27;20160;-54
2022/10/05 12:40:51;;;;;;;2.05;1.35;;;21.50;99.90;;;;;;5132604;27;20167;-54
2022/10/05 12:43:36;;;;;;;2.45;1.48;;;21.40;99.90;;;;;;5132508;27;20206;-55
2022/10/05 12:46:01;;;;;;;3.30;1.70;;;21.40;99.90;;;;;;5132930;27;20651;-54
2022/10/05 12:48:30;;;;;;;2.67;1.40;;;21.40;99.90;;;;;;5132580;27;20176;-54
2022/10/05 12:50:58;;;;;;;3.17;1.80;;;21.50;99.90;;;;;;5132580;27;20160;-54
2022/10/05 12:53:54;;;;;;;3.45;1.63;;;21.40;99.90;;;;;;5132535;27;20171;-54
2022/10/05 12:56:24;;;;;;;3.75;2.05;;;21.50;99.90;;;;;;5132375;27;20564;-54
2022/10/05 12:58:50;;;;;;;1.58;1.48;;;21.50;99.90;;;;;;5134143;27;20168;-54
2022/10/05 13:01:25;;;;;;;2.50;1.70;;;21.50;99.90;;;;;;5136083;27;20160;-54
2022/10/05 13:04:17;;;;;;;3.78;1.73;;;21.50;99.90;;;;;;5135661;27;20199;-54
2022/10/05 13:06:54;;;;;;;10.38;3.45;;;21.50;99.90;;;;;;5135700;27;20187;-54
2022/10/05 13:09:35;;;;;;;2.00;1.80;;;21.50;99.90;;;;;;5136216;27;20174;-54
2022/10/05 13:12:21;;;;;;;17.85;6.97;;;21.50;99.90;;;;;;5135680;27;20163;-54
2022/10/05 13:15:14;;;;;;;4.78;2.10;;;21.60;99.90;;;;;;5135793;27;20633;-54
2022/10/05 13:17:56;;;;;;;3.47;1.65;;;21.70;99.90;;;;;;5136020;27;20213;-54
2022/10/05 13:20:26;;;;;;;2.55;1.73;;;21.80;99.90;;;;;;5135765;27;20164;-54
2022/10/05 13:23:24;;;;;;;2.22;2.03;;;21.70;99.90;;;;;;5135705;27;20533;-54
2022/10/05 13:25:58;;;;;;;5.35;1.77;;;21.70;99.90;;;;;;5135505;27;20199;-54
2022/10/05 13:28:51;;;;;;;3.42;1.85;;;21.80;99.90;;;;;;5133937;27;20644;-54
2022/10/05 13:31:33;;;;;;;4.40;1.65;;;21.70;99.90;;;;;;5135802;27;20160;-54
2022/10/05 13:34:29;;;;;;;2.50;1.40;;;21.80;99.90;;;;;;5136061;27;20244;-54
2022/10/05 13:37:12;;;;;;;1.55;1.40;;;21.90;99.90;;;;;;5135628;27;20214;-54
2022/10/05 13:39:52;;;;;;;1.65;1.50;;;21.90;99.90;;;;;;5134401;27;20175;-54
2022/10/05 13:42:40;;;;;;;4.88;1.60;;;21.90;99.90;;;;;;5135834;27;20247;-54
2022/10/05 13:45:17;;;;;;;2.08;1.20;;;22.00;99.90;;;;;;5135330;27;20240;-53
2022/10/05 13:48:14;;;;;;;2.92;1.33;;;22.00;99.90;;;;;;5133641;27;20168;-54
2022/10/05 13:50:56;;;;;;;2.65;1.70;;;22.00;99.90;;;;;;5134390;27;20164;-54
2022/10/05 13:53:34;;;;;;;2.75;1.98;;;22.00;99.90;;;;;;5134847;27;20175;-54
2022/10/05 13:56:13;;;;;;;3.65;1.42;;;22.00;99.90;;;;;;5135066;27;20219;-54
2022/10/05 13:58:47;;;;;;;2.85;1.38;;;22.00;99.90;;;;;;5134791;27;20175;-54
2022/10/05 14:01:33;;;;;;;4.40;1.50;;;22.10;99.90;;;;;;5134808;27;20642;-54
2022/10/05 14:04:16;;;;;;;5.22;1.35;;;22.00;99.90;;;;;;5135265;27;20200;-54
2022/10/05 14:06:42;;;;;;;4.00;1.60;;;22.00;99.90;;;;;;5135431;27;20175;-54